»·PEaware :: WAT169 KLAS-KJAC

WAT169 :: KLAS-KJAC

FLIGHT INFORMATION

Flight Status: Arrived
Operator:
Walker Air Transport
More flights by this operator :: More flights under this callsign
Pilot: Marty P. (27464)
Aircraft: BOEING 737-800
(B738)
More flights by this aircraft type
Origin: KLAS McCarran Intl
United States
Destination: KJAC Jackson Hole
United States
More flights between these airports :: More routes between these airports
Route: TRALR9 MLF LEIDY DNW
File this flight plan on PilotEdge
Remarks:
Altitude:
(Current/Filed)
27,000ft
Speed:
(Current/Filed)
470kts
Departed: 21-Feb-21 03:33 PM
Arrived: 21-Feb-21 05:06 PM
Distance/Time
Traveled:
495nm/1:33
Distance/Time
To Go:
Arrived

Flight Plot

Page will automatically refresh every two minutes.

Flight plan parsing failed; only flown route is shown


Map Options




Map Legend


Flown Route
Filed Route
Departure Airport
Arrival Airport
Navaid (VOR, NDB)
Fix

Horizontal Profiles

Position Reports

Time Latitude Longitude Heading Altitude Ground
Speed
21-Feb-21 15:06 36.080317 -115.147297 66 2099ft 0kts
21-Feb-21 15:07 36.080317 -115.147297 66 2099ft 0kts
21-Feb-21 15:08 36.080317 -115.147297 66 2099ft 0kts
21-Feb-21 15:09 36.080317 -115.147297 66 2099ft 0kts
21-Feb-21 15:10 36.080317 -115.147297 66 2099ft 0kts
21-Feb-21 15:11 36.080317 -115.147297 66 2099ft 0kts
21-Feb-21 15:12 36.080317 -115.147297 66 2099ft 0kts
21-Feb-21 15:13 36.080317 -115.147297 66 2099ft 0kts
21-Feb-21 15:14 36.080317 -115.147297 66 2099ft 0kts
21-Feb-21 15:15 36.080317 -115.147297 66 2099ft 0kts
21-Feb-21 15:16 36.080317 -115.147297 66 2099ft 0kts
21-Feb-21 15:17 36.080317 -115.147297 66 2099ft 0kts
21-Feb-21 15:18 36.080317 -115.147297 66 2099ft 0kts
21-Feb-21 15:18 36.080317 -115.147297 66 2099ft 0kts
21-Feb-21 15:20 36.080317 -115.147297 66 2099ft 0kts
21-Feb-21 15:21 36.080317 -115.147297 66 2099ft 0kts
21-Feb-21 15:22 36.080315 -115.147302 66 2099ft 0kts
21-Feb-21 15:22 36.080172 -115.147870 106 2101ft 2kts
21-Feb-21 15:24 36.080379 -115.148133 155 2102ft 0kts
21-Feb-21 15:25 36.080379 -115.148133 155 2102ft 0kts
21-Feb-21 15:25 36.080379 -115.148133 155 2102ft 0kts
21-Feb-21 15:26 36.079768 -115.147788 155 2102ft 9kts
21-Feb-21 15:28 36.078289 -115.143788 92 2092ft 19kts
21-Feb-21 15:28 36.078295 -115.137150 92 2072ft 24kts
21-Feb-21 15:29 36.078283 -115.127256 87 2047ft 29kts
21-Feb-21 15:30 36.077480 -115.121524 135 2039ft 7kts
21-Feb-21 15:31 36.076460 -115.121663 259 2040ft 2kts
21-Feb-21 15:32 36.076245 -115.151910 271 2453ft 184kts
21-Feb-21 15:33 36.075204 -115.223026 255 5134ft 246kts
21-Feb-21 15:34 36.024716 -115.277290 199 8937ft 264kts
21-Feb-21 15:35 35.948147 -115.291729 167 11274ft 327kts
21-Feb-21 15:36 35.870171 -115.223173 104 13337ft 376kts
21-Feb-21 15:37 35.868135 -115.094283 76 16226ft 383kts
21-Feb-21 15:38 35.905145 -114.978433 56 19396ft 367kts
21-Feb-21 15:39 35.956898 -114.861153 58 20919ft 395kts
21-Feb-21 15:40 36.004865 -114.737359 59 23108ft 405kts
21-Feb-21 15:41 36.053742 -114.610841 58 25043ft 414kts
21-Feb-21 15:42 36.103464 -114.481811 58 26718ft 423kts
21-Feb-21 15:43 36.154743 -114.348482 59 27396ft 454kts
21-Feb-21 15:44 36.210662 -114.202427 59 27390ft 469kts
21-Feb-21 15:45 36.266862 -114.057196 59 27389ft 468kts
21-Feb-21 15:46 36.323214 -113.911803 58 27383ft 467kts
21-Feb-21 15:47 36.379147 -113.767102 58 27383ft 467kts
21-Feb-21 15:48 36.451083 -113.639917 34 27403ft 447kts
21-Feb-21 15:49 36.562507 -113.579558 11 27408ft 436kts
21-Feb-21 15:50 36.680125 -113.544202 11 27420ft 437kts
21-Feb-21 15:51 36.798204 -113.508674 11 27420ft 435kts
21-Feb-21 15:52 36.915341 -113.473313 11 27421ft 435kts
21-Feb-21 15:53 37.033084 -113.437657 11 27420ft 433kts
21-Feb-21 15:54 37.150239 -113.402066 12 27421ft 434kts
21-Feb-21 15:55 37.267314 -113.366380 12 27429ft 433kts
21-Feb-21 15:56 37.384470 -113.330491 12 27430ft 434kts
21-Feb-21 15:57 37.500328 -113.293140 13 27430ft 433kts
21-Feb-21 15:58 37.616692 -113.255549 13 27430ft 433kts
21-Feb-21 15:59 37.733165 -113.217955 13 27430ft 433kts
21-Feb-21 16:00 37.849583 -113.180294 13 27434ft 431kts
21-Feb-21 16:01 37.965329 -113.142738 13 27439ft 429kts
21-Feb-21 16:02 38.080573 -113.105226 13 27439ft 426kts
21-Feb-21 16:03 38.194195 -113.068128 13 27438ft 429kts
21-Feb-21 16:04 38.309446 -113.030373 13 27445ft 428kts
21-Feb-21 16:05 38.422795 -112.984014 18 27457ft 429kts
21-Feb-21 16:06 38.534302 -112.931239 18 27457ft 429kts
21-Feb-21 16:07 38.645940 -112.878352 18 27456ft 428kts
21-Feb-21 16:08 38.757734 -112.825255 18 27457ft 428kts
21-Feb-21 16:09 38.869346 -112.772076 18 27456ft 427kts
21-Feb-21 16:10 38.980372 -112.719005 18 27462ft 426kts
21-Feb-21 16:11 39.091216 -112.665841 18 27466ft 426kts
21-Feb-21 16:12 39.200755 -112.613128 17 27466ft 425kts
21-Feb-21 16:13 39.311306 -112.559751 17 27466ft 424kts
21-Feb-21 16:14 39.421749 -112.506244 17 27466ft 424kts
21-Feb-21 16:15 39.532135 -112.452581 17 27466ft 423kts
21-Feb-21 16:16 39.642074 -112.398952 17 27460ft 423kts
21-Feb-21 16:17 39.751957 -112.345174 17 27456ft 423kts
21-Feb-21 16:18 39.861200 -112.291367 17 27458ft 424kts
21-Feb-21 16:19 39.970979 -112.237213 17 27457ft 421kts
21-Feb-21 16:20 40.080223 -112.183186 17 27457ft 422kts
21-Feb-21 16:21 40.189803 -112.128813 17 27458ft 422kts
21-Feb-21 16:22 40.299689 -112.074101 17 27471ft 422kts
21-Feb-21 16:23 40.409318 -112.019328 17 27455ft 422kts
21-Feb-21 16:24 40.518209 -111.964740 17 27434ft 422kts
21-Feb-21 16:25 40.627460 -111.909769 17 27413ft 421kts
21-Feb-21 16:26 40.736909 -111.854504 17 27374ft 420kts
21-Feb-21 16:27 40.845426 -111.799523 17 27347ft 420kts
21-Feb-21 16:28 40.954739 -111.743945 17 27347ft 420kts
21-Feb-21 16:29 41.063604 -111.688394 17 27347ft 419kts
21-Feb-21 16:30 41.171841 -111.632969 17 27347ft 420kts
21-Feb-21 16:31 41.280884 -111.576938 17 27347ft 420kts
21-Feb-21 16:32 41.389595 -111.520872 17 27413ft 420kts
21-Feb-21 16:33 41.498696 -111.464400 17 27456ft 420kts
21-Feb-21 16:34 41.607236 -111.408019 17 27457ft 419kts
21-Feb-21 16:35 41.715963 -111.351337 17 27457ft 419kts
21-Feb-21 16:36 41.823812 -111.294742 18 27457ft 420kts
21-Feb-21 16:37 41.932683 -111.237508 18 27456ft 420kts
21-Feb-21 16:38 42.041284 -111.180248 17 27396ft 419kts
21-Feb-21 16:39 42.150191 -111.122652 17 27365ft 421kts
21-Feb-21 16:40 42.258890 -111.064942 17 27340ft 421kts
21-Feb-21 16:41 42.367784 -111.006917 17 27309ft 421kts
21-Feb-21 16:42 42.476095 -110.948985 17 27278ft 421kts
21-Feb-21 16:43 42.585146 -110.890440 17 27251ft 422kts
21-Feb-21 16:44 42.693858 -110.831841 17 27285ft 420kts
21-Feb-21 16:45 42.802623 -110.773011 17 27301ft 422kts
21-Feb-21 16:46 42.911522 -110.713880 17 27301ft 421kts
21-Feb-21 16:47 43.020287 -110.654587 17 27301ft 421kts
21-Feb-21 16:48 43.128001 -110.595586 17 25878ft 405kts
21-Feb-21 16:49 43.230436 -110.539057 17 24272ft 391kts
21-Feb-21 16:50 43.332469 -110.482646 17 24272ft 397kts
21-Feb-21 16:51 43.427511 -110.429487 16 24273ft 339kts
21-Feb-21 16:52 43.509662 -110.383072 15 23012ft 324kts
21-Feb-21 16:53 43.593089 -110.336574 16 20304ft 319kts
21-Feb-21 16:54 43.672713 -110.295111 3 18221ft 283kts
21-Feb-21 16:55 43.743092 -110.304053 339 16113ft 241kts
21-Feb-21 16:56 43.802484 -110.339937 312 13100ft 230kts
21-Feb-21 16:57 43.822907 -110.417316 268 10954ft 195kts
21-Feb-21 16:58 43.817460 -110.488292 268 10976ft 185kts
21-Feb-21 16:59 43.806853 -110.554219 248 9929ft 180kts
21-Feb-21 17:00 43.784713 -110.616978 245 9779ft 182kts
21-Feb-21 17:01 43.750208 -110.667691 204 9324ft 189kts
21-Feb-21 17:02 43.706234 -110.689306 201 8370ft 163kts
21-Feb-21 17:03 43.665521 -110.709283 201 7529ft 149kts
21-Feb-21 17:04 43.625803 -110.728729 199 6694ft 153kts
21-Feb-21 17:05 43.603918 -110.738853 126 6428ft 11kts
21-Feb-21 17:06 43.603549 -110.737314 109 6430ft 3kts
21-Feb-21 17:07 43.603487 -110.737060 108 6430ft 0kts
21-Feb-21 17:08 43.603487 -110.737060 108 6430ft 0kts

Navigation Log

Ident Type
Flight plan parsing failed, navigation log unavailable